createdAt,value
2023-08-31T08:30:14.681Z,22.50
2023-08-31T08:31:14.313Z,22.50
2023-08-31T08:52:58.236Z,67.50
2023-08-31T08:53:58.000Z,73.13
2023-08-31T08:55:51.437Z,73.13
2023-08-31T08:56:51.288Z,84.38
2023-08-31T08:58:55.552Z,84.38
2023-08-31T08:59:55.563Z,84.38
2023-08-31T09:00:55.448Z,101.25
2023-08-31T09:01:55.418Z,78.75
2023-08-31T09:02:55.290Z,84.38
2023-08-31T09:03:55.238Z,73.13
2023-08-31T09:04:55.169Z,90.00
2023-08-31T09:05:55.090Z,95.63
2023-08-31T09:06:55.044Z,123.75
2023-08-31T09:07:54.966Z,90.00
2023-08-31T09:08:54.916Z,101.25
2023-08-31T09:09:54.853Z,112.50
2023-08-31T09:10:54.776Z,106.88
2023-08-31T09:11:54.759Z,118.13
2023-08-31T09:12:54.653Z,84.38
2023-08-31T09:13:54.592Z,73.13
2023-08-31T09:14:54.532Z,84.38
2023-08-31T09:15:54.481Z,78.75
2023-08-31T09:16:54.457Z,84.38
2023-08-31T09:17:54.418Z,67.50
2023-08-31T09:18:54.295Z,56.25
2023-08-31T09:19:54.220Z,61.88
2023-08-31T09:20:54.181Z,90.00
2023-08-31T09:21:54.094Z,95.63
2023-08-31T09:22:54.034Z,90.00
2023-08-31T09:23:53.969Z,67.50
2023-08-31T09:24:53.913Z,78.75
2023-08-31T09:25:53.849Z,78.75
2023-08-31T09:26:53.789Z,78.75
2023-08-31T09:27:53.728Z,78.75
2023-08-31T09:28:53.667Z,84.38
2023-08-31T09:29:53.598Z,67.50
2023-08-31T09:30:53.545Z,61.88
2023-08-31T09:31:53.555Z,61.88
2023-08-31T09:32:53.552Z,73.13
2023-08-31T09:33:53.363Z,78.75
2023-08-31T09:35:02.922Z,67.50
2023-08-31T09:35:53.241Z,73.13
2023-08-31T09:36:53.174Z,90.00
2023-08-31T09:37:53.122Z,101.25
2023-08-31T09:38:53.049Z,90.00
2023-08-31T09:39:52.989Z,84.38
2023-08-31T09:40:52.948Z,95.63
2023-08-31T09:41:52.864Z,101.25
2023-08-31T09:42:52.808Z,95.63
2023-08-31T09:43:52.746Z,45.00
2023-08-31T09:44:52.697Z,33.75
2023-08-31T09:45:52.717Z,33.75
2023-08-31T09:46:52.570Z,45.00
2023-08-31T09:47:52.565Z,50.63
2023-08-31T09:48:52.443Z,50.63
2023-08-31T09:49:52.382Z,33.75
2023-08-31T09:50:52.336Z,33.75
2023-08-31T09:51:52.260Z,39.38
2023-08-31T09:52:52.196Z,50.63
2023-08-31T09:53:52.128Z,56.25
2023-08-31T09:54:52.064Z,67.50
2023-08-31T09:55:52.010Z,84.38
2023-08-31T09:56:51.959Z,90.00
2023-08-31T09:58:01.210Z,73.13
2023-08-31T09:58:51.818Z,45.00
2023-08-31T09:59:51.772Z,22.50
2023-08-31T10:00:51.768Z,22.50
2023-08-31T10:01:51.657Z,28.13
2023-08-31T10:02:51.665Z,39.38
2023-08-31T10:03:51.570Z,39.38
2023-08-31T10:04:51.447Z,28.13
2023-08-31T10:05:51.557Z,28.13
2023-08-31T10:06:51.324Z,39.38
2023-08-31T10:07:51.275Z,50.63
2023-08-31T10:08:51.205Z,50.63
2023-08-31T10:09:51.148Z,28.13
2023-08-31T10:10:51.082Z,28.13
2023-08-31T10:11:51.020Z,33.75
2023-08-31T10:12:51.046Z,45.00
2023-08-31T10:13:50.908Z,56.25
2023-08-31T10:14:50.838Z,73.13
2023-08-31T10:15:50.773Z,67.50
2023-08-31T10:16:50.722Z,56.25
2023-08-31T10:17:50.714Z,61.88
2023-08-31T10:18:50.586Z,56.25
2023-08-31T10:19:50.526Z,50.63
2023-08-31T10:20:50.464Z,112.50
2023-08-31T10:21:50.477Z,90.00
2023-08-31T10:22:50.350Z,84.38
2023-08-31T10:23:50.297Z,84.38
2023-08-31T10:24:50.215Z,78.75
2023-08-31T10:25:50.153Z,67.50
2023-08-31T10:26:50.097Z,56.25
2023-08-31T10:27:50.032Z,56.25
2023-08-31T10:28:49.971Z,50.63
2023-08-31T10:29:49.904Z,45.00
2023-08-31T10:30:49.892Z,45.00
2023-08-31T10:31:49.786Z,45.00
2023-08-31T10:32:49.756Z,50.63
2023-08-31T10:33:49.658Z,56.25
2023-08-31T10:34:49.612Z,61.88
2023-08-31T10:35:49.536Z,56.25
2023-08-31T10:36:53.351Z,50.63
2023-08-31T10:37:49.414Z,50.63
2023-08-31T10:38:49.359Z,50.63
2023-08-31T10:39:49.290Z,39.38
2023-08-31T10:40:49.244Z,39.38
2023-08-31T10:41:49.185Z,50.63
2023-08-31T10:42:49.111Z,56.25
2023-08-31T10:43:49.050Z,61.88
2023-08-31T10:44:48.985Z,73.13
2023-08-31T10:45:48.923Z,78.75
2023-08-31T10:46:48.889Z,90.00
2023-08-31T10:47:48.820Z,78.75
2023-08-31T10:48:48.738Z,61.88
2023-08-31T10:49:48.677Z,56.25
2023-08-31T10:50:48.621Z,73.13
2023-08-31T10:51:48.557Z,67.50
2023-08-31T10:52:48.492Z,56.25
2023-08-31T10:53:48.430Z,50.63
2023-08-31T10:54:48.371Z,50.63
2023-08-31T10:55:48.311Z,67.50
2023-08-31T10:56:48.253Z,50.63
2023-08-31T10:57:48.182Z,33.75
2023-08-31T10:58:48.126Z,33.75
2023-08-31T10:59:48.078Z,33.75
2023-08-31T11:00:48.091Z,33.75
2023-08-31T11:01:47.994Z,39.38
2023-08-31T11:02:47.898Z,56.25
2023-08-31T11:03:47.888Z,50.63
2023-08-31T11:04:49.031Z,50.63
2023-08-31T11:05:47.695Z,56.25
2023-08-31T11:06:47.716Z,50.63
2023-08-31T11:07:47.571Z,45.00
2023-08-31T11:08:47.510Z,39.38
2023-08-31T11:09:47.474Z,39.38
2023-08-31T11:10:47.398Z,33.75
2023-08-31T11:11:47.334Z,45.00
2023-08-31T11:12:47.275Z,50.63
2023-08-31T11:13:47.203Z,56.25
2023-08-31T11:14:47.141Z,61.88
2023-08-31T11:15:47.079Z,78.75
2023-08-31T11:16:47.110Z,78.75
2023-08-31T11:17:46.988Z,67.50
2023-08-31T11:18:46.922Z,67.50
2023-08-31T11:19:46.829Z,73.13
2023-08-31T11:20:46.776Z,73.13
2023-08-31T11:21:46.714Z,84.38
2023-08-31T11:22:46.694Z,84.38
2023-08-31T11:23:46.595Z,84.38
2023-08-31T11:24:46.535Z,90.00
2023-08-31T11:25:46.463Z,101.25
2023-08-31T11:26:46.407Z,84.38
2023-08-31T11:27:46.344Z,90.00
2023-08-31T11:28:46.278Z,90.00
2023-08-31T11:29:46.250Z,84.38
2023-08-31T11:30:46.160Z,140.63
2023-08-31T11:31:46.172Z,95.63
2023-08-31T11:32:46.067Z,84.38
2023-08-31T11:33:45.970Z,84.38
2023-08-31T11:34:45.913Z,84.38
2023-08-31T11:35:45.884Z,78.75
2023-08-31T11:36:45.792Z,78.75
2023-08-31T11:37:45.745Z,78.75
2023-08-31T11:38:45.668Z,73.13
2023-08-31T11:39:45.611Z,73.13
2023-08-31T11:40:45.546Z,84.38
2023-08-31T11:41:45.482Z,78.75
2023-08-31T11:42:45.453Z,67.50
2023-08-31T11:43:45.369Z,67.50
2023-08-31T11:44:45.306Z,67.50
2023-08-31T11:45:45.279Z,73.13
2023-08-31T11:46:45.184Z,73.13
2023-08-31T11:47:45.159Z,73.13
2023-08-31T11:48:45.075Z,67.50
2023-08-31T11:49:45.000Z,67.50
2023-08-31T11:50:44.942Z,67.50
2023-08-31T11:51:44.877Z,67.50
2023-08-31T11:52:44.818Z,67.50
2023-08-31T11:53:44.753Z,61.88
2023-08-31T11:54:44.708Z,61.88
2023-08-31T11:55:44.633Z,78.75
2023-08-31T11:56:44.573Z,78.75
2023-08-31T11:57:44.511Z,67.50
2023-08-31T11:58:58.776Z,67.50
2023-08-31T11:59:44.390Z,56.25
2023-08-31T12:00:44.326Z,45.00
2023-08-31T12:01:44.352Z,45.00
2023-08-31T12:02:44.212Z,50.63
2023-08-31T12:03:50.213Z,50.63
2023-08-31T12:04:44.194Z,50.63
2023-08-31T12:05:44.019Z,50.63
2023-08-31T12:06:43.962Z,50.63
2023-08-31T12:07:43.905Z,56.25
2023-08-31T12:08:43.839Z,39.38
2023-08-31T12:09:43.788Z,45.00
2023-08-31T12:10:43.723Z,33.75
2023-08-31T12:11:43.680Z,50.63
2023-08-31T12:12:43.598Z,33.75
2023-08-31T12:13:43.651Z,50.63
2023-08-31T12:14:43.475Z,50.63
2023-08-31T12:15:43.466Z,50.63
2023-08-31T12:16:43.352Z,50.63
2023-08-31T12:17:43.325Z,50.63
2023-08-31T12:18:43.230Z,50.63
2023-08-31T12:19:43.184Z,50.63
2023-08-31T12:20:43.110Z,50.63
2023-08-31T12:21:43.046Z,50.63
2023-08-31T12:22:42.982Z,50.63
2023-08-31T12:23:42.930Z,45.00
2023-08-31T12:24:42.898Z,50.63
2023-08-31T12:25:42.802Z,50.63
2023-08-31T12:26:42.753Z,56.25
2023-08-31T12:27:42.682Z,50.63
2023-08-31T12:28:42.649Z,50.63
2023-08-31T12:29:42.561Z,50.63
2023-08-31T12:30:42.502Z,50.63
2023-08-31T12:31:42.544Z,56.25
2023-08-31T12:32:42.406Z,50.63
2023-08-31T12:33:42.321Z,56.25
2023-08-31T12:34:42.254Z,50.63
2023-08-31T12:35:42.197Z,56.25
2023-08-31T12:36:42.144Z,56.25
2023-08-31T12:37:42.075Z,56.25
2023-08-31T12:38:42.022Z,56.25
2023-08-31T12:39:41.955Z,56.25
2023-08-31T12:40:41.891Z,61.88
2023-08-31T12:41:41.828Z,67.50
2023-08-31T12:42:41.767Z,61.88
2023-08-31T12:43:41.718Z,56.25
2023-08-31T12:44:41.644Z,56.25
2023-08-31T12:45:41.705Z,56.25
2023-08-31T12:46:41.528Z,56.25
2023-08-31T12:47:41.504Z,61.88
2023-08-31T12:48:41.404Z,61.88
2023-08-31T12:49:41.345Z,73.13
2023-08-31T12:50:41.286Z,67.50
2023-08-31T12:51:41.230Z,78.75
2023-08-31T12:52:41.156Z,56.25
2023-08-31T12:53:41.094Z,61.88
2023-08-31T12:54:41.035Z,78.75
2023-08-31T12:55:40.976Z,73.13
2023-08-31T12:56:40.917Z,78.75
2023-08-31T12:57:40.925Z,78.75
2023-08-31T12:58:40.805Z,67.50
2023-08-31T12:59:40.742Z,67.50
2023-08-31T13:00:40.720Z,78.75
2023-08-31T13:01:40.616Z,78.75
2023-08-31T13:02:40.624Z,78.75
2023-08-31T13:03:40.499Z,78.75
2023-08-31T13:04:41.061Z,56.25
2023-08-31T13:05:40.373Z,56.25
2023-08-31T13:06:40.313Z,95.63
2023-08-31T13:07:40.286Z,95.63
2023-08-31T13:08:40.274Z,73.13
2023-08-31T13:09:40.129Z,78.75
2023-08-31T13:10:40.078Z,73.13
2023-08-31T13:11:40.022Z,73.13
2023-08-31T13:12:39.953Z,61.88
2023-08-31T13:13:39.909Z,50.63
2023-08-31T13:14:39.828Z,50.63
2023-08-31T13:15:39.771Z,78.75
2023-08-31T13:16:39.792Z,56.25
2023-08-31T13:17:39.722Z,56.25
2023-08-31T13:18:39.585Z,56.25
2023-08-31T13:19:39.531Z,67.50
2023-08-31T13:20:39.473Z,73.13
2023-08-31T13:21:39.416Z,73.13
2023-08-31T13:22:39.349Z,84.38
2023-08-31T13:23:39.287Z,112.50
2023-08-31T13:24:39.236Z,95.63
2023-08-31T13:25:39.176Z,106.88
2023-08-31T13:26:39.107Z,84.38
2023-08-31T13:27:39.043Z,78.75
2023-08-31T13:28:38.984Z,78.75
2023-08-31T13:29:38.924Z,78.75
2023-08-31T13:30:38.886Z,78.75
2023-08-31T13:31:38.801Z,84.38
2023-08-31T13:32:38.754Z,78.75
2023-08-31T13:33:38.684Z,73.13
2023-08-31T13:34:38.641Z,73.13
2023-08-31T13:35:38.565Z,73.13
2023-08-31T13:36:38.503Z,73.13
2023-08-31T13:37:38.445Z,84.38
2023-08-31T13:38:39.077Z,73.13
2023-08-31T13:39:38.332Z,84.38
2023-08-31T13:40:38.283Z,84.38
2023-08-31T13:41:38.238Z,73.13
2023-08-31T13:42:38.136Z,90.00
2023-08-31T13:43:38.077Z,95.63
2023-08-31T13:44:38.029Z,84.38
2023-08-31T13:45:37.961Z,84.38
2023-08-31T13:46:37.980Z,90.00
2023-08-31T13:47:37.881Z,84.38
2023-08-31T13:48:37.783Z,78.75
2023-08-31T13:49:37.728Z,73.13
2023-08-31T13:50:37.664Z,78.75
2023-08-31T13:51:37.598Z,78.75
2023-08-31T13:52:37.552Z,50.63
2023-08-31T13:53:37.483Z,73.13
2023-08-31T13:54:37.424Z,73.13
2023-08-31T13:55:37.363Z,73.13
2023-08-31T13:56:37.305Z,73.13
2023-08-31T13:57:37.243Z,73.13
2023-08-31T13:58:37.202Z,73.13
2023-08-31T13:59:37.139Z,67.50
2023-08-31T14:00:37.086Z,73.13
2023-08-31T14:01:37.064Z,73.13
2023-08-31T14:02:36.989Z,73.13
2023-08-31T14:03:37.049Z,67.50
2023-08-31T14:04:36.824Z,78.75
2023-08-31T14:05:36.784Z,67.50
2023-08-31T14:06:36.710Z,45.00
2023-08-31T14:07:36.641Z,45.00
2023-08-31T14:08:36.621Z,50.63
2023-08-31T14:09:36.535Z,67.50
2023-08-31T14:10:36.475Z,50.63
2023-08-31T14:11:36.504Z,45.00
2023-08-31T14:12:36.362Z,61.88
2023-08-31T14:13:36.294Z,67.50
2023-08-31T14:14:36.225Z,73.13
2023-08-31T14:15:36.169Z,78.75
2023-08-31T14:16:36.133Z,73.13
2023-08-31T14:17:36.057Z,73.13
2023-08-31T14:18:35.985Z,67.50
2023-08-31T14:19:35.925Z,67.50
2023-08-31T14:20:35.868Z,67.50
2023-08-31T14:21:35.801Z,67.50
2023-08-31T14:22:35.746Z,61.88
2023-08-31T14:23:35.686Z,61.88
2023-08-31T14:24:35.633Z,56.25
2023-08-31T14:25:35.566Z,56.25
2023-08-31T14:26:35.505Z,50.63
2023-08-31T14:27:35.446Z,56.25
2023-08-31T14:28:35.393Z,56.25
2023-08-31T14:29:35.335Z,56.25
2023-08-31T14:30:35.269Z,56.25
2023-08-31T14:31:35.216Z,56.25
2023-08-31T14:32:35.176Z,50.63
2023-08-31T14:33:35.085Z,50.63
2023-08-31T14:34:35.034Z,50.63
2023-08-31T14:35:34.970Z,50.63
2023-08-31T14:36:34.947Z,50.63
2023-08-31T14:37:34.847Z,50.63
2023-08-31T14:38:34.786Z,50.63
2023-08-31T14:39:34.736Z,50.63
2023-08-31T14:40:34.676Z,50.63
2023-08-31T14:41:34.606Z,50.63
2023-08-31T14:42:34.550Z,56.25
2023-08-31T14:43:34.493Z,56.25
2023-08-31T14:44:34.428Z,50.63
2023-08-31T14:45:34.401Z,67.50
2023-08-31T14:46:34.311Z,67.50
2023-08-31T14:47:34.272Z,56.25
2023-08-31T14:48:34.189Z,45.00
2023-08-31T14:49:34.125Z,50.63
2023-08-31T14:50:34.069Z,39.38
2023-08-31T14:51:34.007Z,39.38
2023-08-31T14:52:33.951Z,39.38
2023-08-31T14:53:33.883Z,45.00
2023-08-31T14:54:33.825Z,50.63
2023-08-31T14:55:33.771Z,50.63
2023-08-31T14:56:33.724Z,45.00
2023-08-31T14:57:33.651Z,56.25
2023-08-31T14:58:33.587Z,56.25
2023-08-31T14:59:33.537Z,61.88
2023-08-31T15:00:33.472Z,50.63
2023-08-31T15:01:33.483Z,56.25
2023-08-31T15:02:33.412Z,45.00
2023-08-31T15:03:33.337Z,39.38
2023-08-31T15:04:33.229Z,39.38
2023-08-31T15:05:33.171Z,50.63
2023-08-31T15:06:33.101Z,33.75
2023-08-31T15:07:33.124Z,45.00
2023-08-31T15:08:32.982Z,33.75
2023-08-31T15:09:32.933Z,45.00
2023-08-31T15:10:32.866Z,45.00
2023-08-31T15:11:32.804Z,45.00
2023-08-31T15:12:32.743Z,45.00
2023-08-31T15:13:32.700Z,39.38
2023-08-31T15:14:32.629Z,39.38
2023-08-31T15:15:32.598Z,39.38
2023-08-31T15:16:32.503Z,33.75
2023-08-31T15:17:32.472Z,33.75
2023-08-31T15:18:32.385Z,33.75
2023-08-31T15:19:32.338Z,33.75
2023-08-31T15:20:32.262Z,28.13
2023-08-31T15:21:32.220Z,28.13
2023-08-31T15:22:32.843Z,28.13
2023-08-31T15:23:32.088Z,28.13
2023-08-31T15:24:32.025Z,33.75
2023-08-31T15:25:31.965Z,28.13
2023-08-31T15:26:31.903Z,28.13
2023-08-31T15:27:31.838Z,28.13
2023-08-31T15:28:31.779Z,28.13
2023-08-31T15:29:31.725Z,28.13
2023-08-31T15:30:31.653Z,28.13
2023-08-31T15:31:31.615Z,28.13
2023-08-31T15:32:31.559Z,28.13
2023-08-31T15:33:31.483Z,28.13
2023-08-31T15:34:31.433Z,33.75
2023-08-31T15:35:31.361Z,33.75
2023-08-31T15:36:31.293Z,33.75
2023-08-31T15:37:31.237Z,28.13
2023-08-31T15:38:31.177Z,28.13
2023-08-31T15:39:31.119Z,28.13
2023-08-31T15:40:31.067Z,28.13
2023-08-31T15:41:30.996Z,28.13
2023-08-31T15:42:30.935Z,28.13
2023-08-31T15:43:30.875Z,28.13
2023-08-31T15:44:30.821Z,28.13
2023-08-31T15:45:30.773Z,28.13
2023-08-31T15:46:30.742Z,28.13
2023-08-31T15:47:30.669Z,28.13
2023-08-31T15:48:30.578Z,28.13
2023-08-31T15:49:30.512Z,28.13
2023-08-31T15:50:30.479Z,28.13
2023-08-31T15:51:30.439Z,28.13
2023-08-31T15:52:30.337Z,28.13
2023-08-31T15:53:30.275Z,28.13
2023-08-31T15:54:30.214Z,28.13
2023-08-31T15:55:30.150Z,28.13
2023-08-31T15:56:30.091Z,28.13
2023-08-31T15:57:30.028Z,28.13
2023-08-31T15:58:29.993Z,28.13
2023-08-31T15:59:29.912Z,28.13
2023-08-31T16:00:29.850Z,28.13
2023-08-31T16:01:29.790Z,28.13
2023-08-31T16:02:29.912Z,28.13
2023-08-31T16:03:29.675Z,28.13
2023-08-31T16:04:29.601Z,22.50
2023-08-31T16:05:29.545Z,22.50
2023-08-31T16:06:29.480Z,22.50
2023-08-31T16:07:29.442Z,16.88
2023-08-31T16:08:29.378Z,22.50
2023-08-31T16:09:29.312Z,22.50
2023-08-31T16:10:29.245Z,22.50
2023-08-31T16:11:29.191Z,28.13
2023-08-31T16:12:29.125Z,28.13
2023-08-31T16:13:29.063Z,28.13
2023-08-31T16:14:29.003Z,28.13
2023-08-31T16:15:28.957Z,28.13
2023-08-31T16:16:28.900Z,28.13
2023-08-31T16:17:28.886Z,28.13
2023-08-31T16:18:28.759Z,28.13
2023-08-31T16:19:28.711Z,28.13
2023-08-31T16:20:28.647Z,28.13
2023-08-31T16:21:28.583Z,22.50
2023-08-31T16:22:28.521Z,22.50
2023-08-31T16:23:28.464Z,22.50
2023-08-31T16:24:28.393Z,22.50
2023-08-31T16:25:28.340Z,22.50
2023-08-31T16:26:28.286Z,22.50
2023-08-31T16:27:28.218Z,22.50
2023-08-31T16:28:28.154Z,22.50
2023-08-31T16:29:28.093Z,22.50
2023-08-31T16:30:28.034Z,22.50
2023-08-31T16:31:27.971Z,22.50
2023-08-31T16:32:27.935Z,22.50
2023-08-31T16:33:27.861Z,22.50
2023-08-31T16:34:27.790Z,22.50
2023-08-31T16:35:27.737Z,22.50
2023-08-31T16:36:27.671Z,22.50
2023-08-31T16:37:27.613Z,22.50
2023-08-31T16:38:27.551Z,16.88
2023-08-31T16:39:27.491Z,16.88
2023-08-31T16:40:27.436Z,16.88
2023-08-31T16:41:27.376Z,16.88
2023-08-31T16:42:27.303Z,16.88
2023-08-31T16:43:27.244Z,16.88
2023-08-31T16:44:27.204Z,16.88
2023-08-31T16:45:27.137Z,16.88
2023-08-31T16:46:27.129Z,16.88
2023-08-31T16:47:27.059Z,16.88
2023-08-31T16:48:26.949Z,16.88
2023-08-31T16:49:26.885Z,16.88
2023-08-31T16:50:26.826Z,16.88
2023-08-31T16:51:26.761Z,16.88
2023-08-31T16:52:26.702Z,16.88
2023-08-31T16:53:26.641Z,16.88
2023-08-31T16:54:26.580Z,16.88
2023-08-31T16:55:26.527Z,16.88
2023-08-31T16:56:26.461Z,16.88
2023-08-31T16:57:26.405Z,16.88
2023-08-31T16:58:26.344Z,11.25
2023-08-31T16:59:26.282Z,11.25
2023-08-31T17:00:26.215Z,11.25
2023-08-31T17:01:26.204Z,11.25
2023-08-31T17:02:26.172Z,11.25
2023-08-31T17:03:26.119Z,11.25
2023-08-31T17:04:25.975Z,5.63
2023-08-31T17:05:25.915Z,5.63
2023-08-31T17:06:25.852Z,5.63
2023-08-31T17:07:25.798Z,5.63
2023-08-31T17:08:25.731Z,5.63
2023-08-31T17:09:25.696Z,5.63
2023-08-31T17:10:25.628Z,5.63
2023-08-31T17:11:25.567Z,5.63
2023-08-31T17:12:25.494Z,5.63
2023-08-31T17:13:25.431Z,5.63
2023-08-31T17:14:25.367Z,5.63
2023-08-31T17:15:25.342Z,5.63
2023-08-31T17:16:25.277Z,5.63
2023-08-31T17:17:25.185Z,5.63
2023-08-31T17:18:25.180Z,5.63
2023-08-31T17:19:25.072Z,5.63
2023-08-31T17:20:25.004Z,5.63
2023-08-31T17:21:24.944Z,5.63
2023-08-31T17:22:24.881Z,5.63
2023-08-31T17:23:24.822Z,0.00
2023-08-31T17:24:24.769Z,0.00
2023-08-31T17:25:24.696Z,0.00
2023-08-31T17:26:24.639Z,0.00
2023-08-31T17:27:24.573Z,0.00
2023-08-31T17:28:24.512Z,0.00
2023-08-31T17:29:24.459Z,0.00
2023-08-31T17:30:24.441Z,0.00
2023-08-31T17:31:24.334Z,0.00
2023-08-31T17:32:24.292Z,0.00
2023-08-31T17:33:24.214Z,0.00
2023-08-31T17:34:24.168Z,0.00
2023-08-31T17:35:24.085Z,5.63
2023-08-31T17:36:24.030Z,5.63
2023-08-31T17:37:23.968Z,5.63
2023-08-31T17:38:23.900Z,0.00
2023-08-31T17:39:23.847Z,0.00
2023-08-31T17:40:23.794Z,0.00
2023-08-31T17:41:23.726Z,0.00
2023-08-31T17:42:23.656Z,0.00
2023-08-31T17:43:23.606Z,0.00
2023-08-31T17:44:23.531Z,0.00
2023-08-31T17:45:24.416Z,0.00
2023-08-31T17:46:23.413Z,0.00
2023-08-31T17:47:23.357Z,0.00
2023-08-31T17:48:23.292Z,0.00
2023-08-31T17:49:23.233Z,0.00
2023-08-31T17:50:23.178Z,0.00
2023-08-31T17:51:23.113Z,0.00
2023-08-31T17:52:23.053Z,0.00
2023-08-31T17:53:22.985Z,0.00
2023-08-31T17:54:22.929Z,0.00
2023-08-31T17:55:22.870Z,0.00
2023-08-31T17:56:22.861Z,0.00
2023-08-31T17:57:22.745Z,0.00
2023-08-31T17:58:22.686Z,0.00
2023-08-31T17:59:22.621Z,0.00
2023-08-31T18:00:22.561Z,0.00
2023-08-31T18:01:22.627Z,0.00
2023-08-31T18:02:22.459Z,0.00
2023-08-31T18:03:22.416Z,0.00
2023-08-31T18:04:22.313Z,0.00
2023-08-31T18:05:22.271Z,0.00
2023-08-31T18:06:22.195Z,0.00
2023-08-31T18:07:22.128Z,0.00
2023-08-31T18:08:22.072Z,0.00
2023-08-31T18:09:22.022Z,0.00
2023-08-31T18:10:21.954Z,0.00
2023-08-31T18:11:21.886Z,0.00
2023-08-31T18:12:21.822Z,0.00
2023-08-31T18:13:21.758Z,0.00
2023-08-31T18:14:21.710Z,0.00
2023-08-31T18:15:21.641Z,0.00
2023-08-31T18:16:21.584Z,0.00
2023-08-31T18:17:21.519Z,0.00
2023-08-31T18:18:21.868Z,0.00
2023-08-31T18:19:22.240Z,0.00
2023-08-31T18:20:21.343Z,0.00
2023-08-31T18:21:21.276Z,0.00
2023-08-31T18:22:21.210Z,0.00
2023-08-31T18:23:21.159Z,0.00
2023-08-31T18:24:21.090Z,0.00
2023-08-31T18:25:21.044Z,0.00
2023-08-31T18:26:20.960Z,0.00
2023-08-31T18:27:20.905Z,0.00
2023-08-31T18:28:20.842Z,0.00
2023-08-31T18:29:20.779Z,0.00
2023-08-31T18:30:20.722Z,0.00
2023-08-31T18:31:20.727Z,0.00
2023-08-31T18:32:20.645Z,0.00
2023-08-31T18:33:20.618Z,0.00
2023-08-31T18:34:20.484Z,0.00
2023-08-31T18:35:20.419Z,0.00
2023-08-31T18:36:20.352Z,0.00
2023-08-31T18:37:20.302Z,0.00
2023-08-31T18:38:20.252Z,0.00
2023-08-31T18:39:20.177Z,0.00
2023-08-31T18:40:20.110Z,0.00
2023-08-31T18:41:20.045Z,0.00
2023-08-31T18:42:19.987Z,0.00
2023-08-31T18:43:19.926Z,0.00
2023-08-31T18:44:19.856Z,0.00
2023-08-31T18:45:19.801Z,0.00
2023-08-31T18:46:19.763Z,0.00
2023-08-31T18:47:19.676Z,0.00
2023-08-31T18:48:19.616Z,0.00
2023-08-31T18:49:19.555Z,0.00
2023-08-31T18:50:19.491Z,0.00
2023-08-31T18:51:19.460Z,0.00
2023-08-31T18:52:19.368Z,0.00
2023-08-31T18:53:19.300Z,0.00
2023-08-31T18:54:19.248Z,0.00
2023-08-31T18:55:19.182Z,0.00
2023-08-31T18:56:19.127Z,0.00
2023-08-31T18:57:19.071Z,0.00
2023-08-31T18:58:19.002Z,0.00
2023-08-31T18:59:18.982Z,0.00
2023-08-31T19:00:18.883Z,0.00
2023-08-31T19:01:18.854Z,0.00
2023-08-31T19:02:18.807Z,0.00
2023-08-31T19:03:18.729Z,0.00
2023-08-31T19:04:18.630Z,0.00
2023-08-31T19:05:18.565Z,0.00
2023-08-31T19:06:18.518Z,0.00
2023-08-31T19:07:18.448Z,0.00
2023-08-31T19:08:18.594Z,0.00
2023-08-31T19:09:18.327Z,0.00
2023-08-31T19:10:18.262Z,0.00
2023-08-31T19:11:18.208Z,0.00
2023-08-31T19:12:18.161Z,0.00
2023-08-31T19:13:18.078Z,0.00
2023-08-31T19:14:18.027Z,0.00
2023-08-31T19:15:17.991Z,0.00
2023-08-31T19:16:17.939Z,0.00
2023-08-31T19:17:17.830Z,0.00
2023-08-31T19:18:18.030Z,0.00
2023-08-31T19:19:17.706Z,0.00
2023-08-31T19:20:17.684Z,0.00
2023-08-31T19:21:20.813Z,0.00
2023-08-31T19:22:17.527Z,0.00
2023-08-31T19:23:17.458Z,0.00
2023-08-31T19:24:17.396Z,0.00
2023-08-31T19:25:17.334Z,0.00
2023-08-31T19:26:17.281Z,0.00
2023-08-31T19:27:17.224Z,0.00
2023-08-31T19:28:17.168Z,0.00
2023-08-31T19:29:17.092Z,0.00
2023-08-31T19:30:17.037Z,0.00
2023-08-31T19:31:17.011Z,0.00
2023-08-31T19:32:16.939Z,0.00
2023-08-31T19:33:16.851Z,0.00
2023-08-31T19:34:16.782Z,0.00
2023-08-31T19:35:39.155Z,0.00
2023-08-31T19:36:16.664Z,0.00
2023-08-31T19:37:16.601Z,0.00
2023-08-31T19:38:16.812Z,0.00
2023-08-31T19:39:16.479Z,0.00
2023-08-31T19:40:16.416Z,0.00
2023-08-31T19:41:16.685Z,0.00
2023-08-31T19:42:16.303Z,0.00
2023-08-31T19:43:16.229Z,0.00
2023-08-31T19:44:16.169Z,0.00
2023-08-31T19:45:16.111Z,0.00
2023-08-31T19:46:16.106Z,0.00
2023-08-31T19:47:15.982Z,0.00
2023-08-31T19:48:16.237Z,0.00
2023-08-31T19:49:15.863Z,0.00
2023-08-31T19:50:15.801Z,0.00
2023-08-31T19:51:15.749Z,0.00
2023-08-31T19:52:15.704Z,0.00
2023-08-31T19:53:15.606Z,0.00
2023-08-31T19:54:15.555Z,0.00
2023-08-31T19:55:15.492Z,0.00
2023-08-31T19:56:15.434Z,0.00
2023-08-31T19:57:15.383Z,0.00
2023-08-31T19:58:15.553Z,0.00
2023-08-31T19:59:15.245Z,0.00
2023-08-31T20:00:15.185Z,0.00
2023-08-31T20:01:15.158Z,0.00
2023-08-31T20:02:15.074Z,0.00
2023-08-31T20:03:15.044Z,0.00
2023-08-31T20:04:14.938Z,0.00
2023-08-31T20:05:14.878Z,0.00
2023-08-31T20:06:14.819Z,0.00
2023-08-31T20:07:14.791Z,0.00
2023-08-31T20:08:14.787Z,0.00
2023-08-31T20:09:14.629Z,0.00
2023-08-31T20:10:14.572Z,0.00
2023-08-31T20:11:14.499Z,0.00
2023-08-31T20:12:14.442Z,0.00
2023-08-31T20:13:14.380Z,0.00
2023-08-31T20:14:14.319Z,0.00
2023-08-31T20:15:14.260Z,0.00
2023-08-31T20:16:14.215Z,0.00
2023-08-31T20:17:14.133Z,0.00
2023-08-31T20:18:14.443Z,0.00
2023-08-31T20:19:14.480Z,0.00
2023-08-31T20:20:13.968Z,0.00
2023-08-31T20:21:13.884Z,0.00
2023-08-31T20:22:13.826Z,0.00
2023-08-31T20:23:13.761Z,0.00
2023-08-31T20:24:13.700Z,0.00
2023-08-31T20:25:13.657Z,0.00
2023-08-31T20:26:13.596Z,0.00
2023-08-31T20:27:13.520Z,0.00
2023-08-31T20:28:13.536Z,0.00
2023-08-31T20:29:13.387Z,0.00
2023-08-31T20:30:13.376Z,0.00
2023-08-31T20:31:14.116Z,0.00
2023-08-31T20:32:13.208Z,0.00
2023-08-31T20:33:13.264Z,0.00
2023-08-31T20:34:13.084Z,0.00
2023-08-31T20:35:13.023Z,0.00
2023-08-31T20:36:12.961Z,0.00
2023-08-31T20:37:12.896Z,0.00
2023-08-31T20:38:13.082Z,0.00
2023-08-31T20:39:13.793Z,0.00
2023-08-31T20:40:12.713Z,0.00
2023-08-31T20:41:12.661Z,0.00
2023-08-31T20:42:12.592Z,0.00
2023-08-31T20:43:12.524Z,0.00
2023-08-31T20:44:12.472Z,0.00
2023-08-31T20:45:12.408Z,0.00
2023-08-31T20:46:12.369Z,0.00
2023-08-31T20:47:12.298Z,0.00
2023-08-31T20:48:12.276Z,0.00
2023-08-31T20:49:12.151Z,0.00
2023-08-31T20:50:12.090Z,0.00
2023-08-31T20:51:12.030Z,0.00
2023-08-31T20:52:11.971Z,0.00
2023-08-31T20:53:11.909Z,0.00
2023-08-31T20:54:11.849Z,0.00
2023-08-31T20:55:11.787Z,0.00
2023-08-31T20:56:11.720Z,0.00
2023-08-31T20:57:11.654Z,0.00
2023-08-31T20:58:11.863Z,0.00
2023-08-31T20:59:11.543Z,0.00
2023-08-31T21:00:11.531Z,0.00
2023-08-31T21:01:11.549Z,0.00
2023-08-31T21:02:11.366Z,0.00
2023-08-31T21:03:11.326Z,0.00
2023-08-31T21:04:11.263Z,0.00
2023-08-31T21:05:11.163Z,0.00
2023-08-31T21:06:11.109Z,0.00
2023-08-31T21:07:11.053Z,0.00
2023-08-31T21:08:11.127Z,0.00
2023-08-31T21:09:10.917Z,0.00
2023-08-31T21:10:10.854Z,0.00
2023-08-31T21:11:10.794Z,0.00
2023-08-31T21:12:10.736Z,0.00
2023-08-31T21:13:10.678Z,0.00
2023-08-31T21:14:10.605Z,0.00
2023-08-31T21:15:10.548Z,0.00
2023-08-31T21:16:10.579Z,0.00
2023-08-31T21:17:10.417Z,0.00
2023-08-31T21:18:10.411Z,0.00
2023-08-31T21:19:10.298Z,0.00
2023-08-31T21:20:10.240Z,0.00
2023-08-31T21:21:10.179Z,0.00
2023-08-31T21:22:10.112Z,0.00
2023-08-31T21:23:10.046Z,0.00
2023-08-31T21:24:09.993Z,0.00
2023-08-31T21:25:09.923Z,0.00
2023-08-31T21:26:09.871Z,0.00
2023-08-31T21:27:09.813Z,0.00
2023-08-31T21:28:09.744Z,0.00
2023-08-31T21:29:09.676Z,0.00
2023-08-31T21:30:09.628Z,0.00
2023-08-31T21:31:09.592Z,0.00
2023-08-31T21:32:09.494Z,0.00
2023-08-31T21:33:09.448Z,0.00
2023-08-31T21:34:09.376Z,0.00
2023-08-31T21:35:09.310Z,0.00
2023-08-31T21:36:09.242Z,0.00
2023-08-31T21:37:09.194Z,0.00
2023-08-31T21:38:09.133Z,0.00
2023-08-31T21:39:09.061Z,0.00
2023-08-31T21:40:09.006Z,0.00
2023-08-31T21:41:08.940Z,0.00
2023-08-31T21:42:08.877Z,0.00
2023-08-31T21:43:08.810Z,0.00
2023-08-31T21:44:08.747Z,0.00
2023-08-31T21:45:08.685Z,0.00
2023-08-31T21:46:08.655Z,0.00
2023-08-31T21:47:08.569Z,0.00
2023-08-31T21:48:08.521Z,0.00
2023-08-31T21:49:08.441Z,0.00
2023-08-31T21:50:08.389Z,0.00
2023-08-31T21:51:08.341Z,0.00
2023-08-31T21:52:08.257Z,0.00
2023-08-31T21:53:08.228Z,0.00